sensor_id;sensor_type;location;lat;lon;timestamp;P1;durP1;ratioP1;P2;durP2;ratioP2
2542;SDS011;1116;51.502;7.414;2023-11-19T00:02:26;1.87;;;1.40;;
2542;SDS011;1116;51.502;7.414;2023-11-19T00:04:56;1.90;;;1.80;;
2542;SDS011;1116;51.502;7.414;2023-11-19T00:07:29;1.57;;;1.47;;
2542;SDS011;1116;51.502;7.414;2023-11-19T00:10:01;1.63;;;1.40;;
2542;SDS011;1116;51.502;7.414;2023-11-19T00:12:37;1.30;;;1.20;;
2542;SDS011;1116;51.502;7.414;2023-11-19T00:15:08;1.60;;;1.50;;
2542;SDS011;1116;51.502;7.414;2023-11-19T00:17:39;2.10;;;1.77;;
2542;SDS011;1116;51.502;7.414;2023-11-19T00:20:11;4.10;;;1.67;;
2542;SDS011;1116;51.502;7.414;2023-11-19T00:22:45;1.53;;;1.43;;
2542;SDS011;1116;51.502;7.414;2023-11-19T00:25:18;1.90;;;1.80;;
2542;SDS011;1116;51.502;7.414;2023-11-19T00:27:49;2.80;;;1.93;;
2542;SDS011;1116;51.502;7.414;2023-11-19T00:30:20;2.10;;;2.00;;
2542;SDS011;1116;51.502;7.414;2023-11-19T00:32:50;2.50;;;1.67;;
2542;SDS011;1116;51.502;7.414;2023-11-19T00:35:20;2.67;;;2.20;;
2542;SDS011;1116;51.502;7.414;2023-11-19T00:37:52;3.00;;;2.47;;
2542;SDS011;1116;51.502;7.414;2023-11-19T00:40:24;3.50;;;2.60;;
2542;SDS011;1116;51.502;7.414;2023-11-19T00:42:54;2.53;;;2.00;;
2542;SDS011;1116;51.502;7.414;2023-11-19T00:45:26;2.17;;;1.97;;
2542;SDS011;1116;51.502;7.414;2023-11-19T00:47:56;2.63;;;2.20;;
2542;SDS011;1116;51.502;7.414;2023-11-19T00:50:27;2.57;;;2.37;;
2542;SDS011;1116;51.502;7.414;2023-11-19T00:53:04;3.00;;;2.50;;
2542;SDS011;1116;51.502;7.414;2023-11-19T00:55:34;3.53;;;3.00;;
2542;SDS011;1116;51.502;7.414;2023-11-19T00:58:12;2.40;;;2.20;;
2542;SDS011;1116;51.502;7.414;2023-11-19T01:00:44;4.60;;;3.60;;
2542;SDS011;1116;51.502;7.414;2023-11-19T01:03:14;2.80;;;2.60;;
2542;SDS011;1116;51.502;7.414;2023-11-19T01:05:44;4.13;;;2.90;;
2542;SDS011;1116;51.502;7.414;2023-11-19T01:08:18;7.40;;;3.50;;
2542;SDS011;1116;51.502;7.414;2023-11-19T01:10:48;3.40;;;2.90;;
2542;SDS011;1116;51.502;7.414;2023-11-19T01:13:18;3.80;;;2.90;;
2542;SDS011;1116;51.502;7.414;2023-11-19T01:15:48;3.23;;;2.93;;
2542;SDS011;1116;51.502;7.414;2023-11-19T01:18:19;3.67;;;3.30;;
2542;SDS011;1116;51.502;7.414;2023-11-19T01:20:49;4.67;;;3.30;;
2542;SDS011;1116;51.502;7.414;2023-11-19T01:23:21;4.07;;;3.23;;
2542;SDS011;1116;51.502;7.414;2023-11-19T01:25:51;3.30;;;3.00;;
2542;SDS011;1116;51.502;7.414;2023-11-19T01:28:21;3.30;;;3.00;;
2542;SDS011;1116;51.502;7.414;2023-11-19T01:30:51;4.30;;;2.93;;
2542;SDS011;1116;51.502;7.414;2023-11-19T01:33:21;3.23;;;3.03;;
2542;SDS011;1116;51.502;7.414;2023-11-19T01:35:51;4.67;;;3.27;;
2542;SDS011;1116;51.502;7.414;2023-11-19T01:38:25;3.27;;;2.97;;
2542;SDS011;1116;51.502;7.414;2023-11-19T01:40:55;2.93;;;2.73;;
2542;SDS011;1116;51.502;7.414;2023-11-19T01:43:32;2.77;;;2.57;;
2542;SDS011;1116;51.502;7.414;2023-11-19T01:46:04;2.60;;;2.40;;
2542;SDS011;1116;51.502;7.414;2023-11-19T01:48:37;2.43;;;2.23;;
2542;SDS011;1116;51.502;7.414;2023-11-19T01:51:11;3.43;;;2.30;;
2542;SDS011;1116;51.502;7.414;2023-11-19T01:53:45;2.43;;;2.20;;
2542;SDS011;1116;51.502;7.414;2023-11-19T01:56:16;2.20;;;2.10;;
2542;SDS011;1116;51.502;7.414;2023-11-19T01:58:46;2.20;;;1.90;;
2542;SDS011;1116;51.502;7.414;2023-11-19T02:01:17;2.90;;;1.90;;
2542;SDS011;1116;51.502;7.414;2023-11-19T02:03:48;1.80;;;1.70;;
2542;SDS011;1116;51.502;7.414;2023-11-19T02:06:18;2.87;;;2.03;;
2542;SDS011;1116;51.502;7.414;2023-11-19T02:08:51;1.93;;;1.83;;
2542;SDS011;1116;51.502;7.414;2023-11-19T02:11:21;3.20;;;2.10;;
2542;SDS011;1116;51.502;7.414;2023-11-19T02:13:55;1.97;;;1.87;;
2542;SDS011;1116;51.502;7.414;2023-11-19T02:16:26;3.80;;;2.43;;
2542;SDS011;1116;51.502;7.414;2023-11-19T02:18:56;5.30;;;2.20;;
2542;SDS011;1116;51.502;7.414;2023-11-19T02:21:26;2.53;;;2.03;;
2542;SDS011;1116;51.502;7.414;2023-11-19T02:23:58;2.40;;;2.20;;
2542;SDS011;1116;51.502;7.414;2023-11-19T02:26:32;3.80;;;2.00;;
2542;SDS011;1116;51.502;7.414;2023-11-19T02:29:11;2.40;;;2.10;;
2542;SDS011;1116;51.502;7.414;2023-11-19T02:31:41;2.50;;;2.13;;
2542;SDS011;1116;51.502;7.414;2023-11-19T02:34:12;2.90;;;2.60;;
2542;SDS011;1116;51.502;7.414;2023-11-19T02:36:42;2.50;;;2.20;;
2542;SDS011;1116;51.502;7.414;2023-11-19T02:39:13;4.70;;;2.10;;
2542;SDS011;1116;51.502;7.414;2023-11-19T02:41:48;4.50;;;2.23;;
2542;SDS011;1116;51.502;7.414;2023-11-19T02:44:22;4.00;;;2.17;;
2542;SDS011;1116;51.502;7.414;2023-11-19T02:46:54;4.40;;;2.33;;
2542;SDS011;1116;51.502;7.414;2023-11-19T02:49:26;4.07;;;2.30;;
2542;SDS011;1116;51.502;7.414;2023-11-19T02:52:17;5.97;;;2.20;;
2542;SDS011;1116;51.502;7.414;2023-11-19T02:54:47;5.97;;;2.60;;
2542;SDS011;1116;51.502;7.414;2023-11-19T02:57:20;5.93;;;2.07;;
2542;SDS011;1116;51.502;7.414;2023-11-19T02:59:54;5.53;;;2.20;;
2542;SDS011;1116;51.502;7.414;2023-11-19T03:02:25;6.50;;;2.23;;
2542;SDS011;1116;51.502;7.414;2023-11-19T03:05:00;7.00;;;2.00;;
2542;SDS011;1116;51.502;7.414;2023-11-19T03:07:35;6.47;;;1.90;;
2542;SDS011;1116;51.502;7.414;2023-11-19T03:10:06;7.83;;;2.60;;
2542;SDS011;1116;51.502;7.414;2023-11-19T03:12:41;8.63;;;2.33;;
2542;SDS011;1116;51.502;7.414;2023-11-19T03:15:15;7.30;;;2.00;;
2542;SDS011;1116;51.502;7.414;2023-11-19T03:17:47;8.67;;;2.17;;
2542;SDS011;1116;51.502;7.414;2023-11-19T03:20:22;5.83;;;2.47;;
2542;SDS011;1116;51.502;7.414;2023-11-19T03:22:54;8.83;;;2.33;;
2542;SDS011;1116;51.502;7.414;2023-11-19T03:25:24;7.80;;;2.90;;
2542;SDS011;1116;51.502;7.414;2023-11-19T03:27:59;6.40;;;2.37;;
2542;SDS011;1116;51.502;7.414;2023-11-19T03:30:33;10.07;;;2.63;;
2542;SDS011;1116;51.502;7.414;2023-11-19T03:33:04;5.67;;;2.60;;
2542;SDS011;1116;51.502;7.414;2023-11-19T03:35:34;7.53;;;2.50;;
2542;SDS011;1116;51.502;7.414;2023-11-19T03:38:04;10.60;;;2.57;;
2542;SDS011;1116;51.502;7.414;2023-11-19T03:40:34;6.57;;;2.27;;
2542;SDS011;1116;51.502;7.414;2023-11-19T03:43:06;7.10;;;2.90;;
2542;SDS011;1116;51.502;7.414;2023-11-19T03:45:38;8.50;;;2.97;;
2542;SDS011;1116;51.502;7.414;2023-11-19T03:48:09;7.20;;;2.33;;
2542;SDS011;1116;51.502;7.414;2023-11-19T03:50:38;10.57;;;3.17;;
2542;SDS011;1116;51.502;7.414;2023-11-19T03:53:08;9.67;;;2.93;;
2542;SDS011;1116;51.502;7.414;2023-11-19T03:55:41;8.70;;;3.37;;
2542;SDS011;1116;51.502;7.414;2023-11-19T03:58:11;12.43;;;3.07;;
2542;SDS011;1116;51.502;7.414;2023-11-19T04:00:44;14.07;;;3.90;;
2542;SDS011;1116;51.502;7.414;2023-11-19T04:03:14;7.97;;;3.20;;
2542;SDS011;1116;51.502;7.414;2023-11-19T04:05:46;12.43;;;3.37;;
2542;SDS011;1116;51.502;7.414;2023-11-19T04:08:15;11.30;;;3.63;;
2542;SDS011;1116;51.502;7.414;2023-11-19T04:10:46;10.20;;;4.10;;
2542;SDS011;1116;51.502;7.414;2023-11-19T04:13:16;10.90;;;4.07;;
2542;SDS011;1116;51.502;7.414;2023-11-19T04:15:49;9.83;;;4.00;;
2542;SDS011;1116;51.502;7.414;2023-11-19T04:18:18;11.30;;;3.77;;
2542;SDS011;1116;51.502;7.414;2023-11-19T04:20:48;12.43;;;4.03;;
2542;SDS011;1116;51.502;7.414;2023-11-19T04:23:18;11.90;;;3.70;;
2542;SDS011;1116;51.502;7.414;2023-11-19T04:25:48;14.63;;;3.60;;
2542;SDS011;1116;51.502;7.414;2023-11-19T04:28:18;11.47;;;3.90;;
2542;SDS011;1116;51.502;7.414;2023-11-19T04:30:51;8.30;;;3.30;;
2542;SDS011;1116;51.502;7.414;2023-11-19T04:33:21;11.10;;;3.80;;
2542;SDS011;1116;51.502;7.414;2023-11-19T04:35:51;10.43;;;3.40;;
2542;SDS011;1116;51.502;7.414;2023-11-19T04:38:21;11.30;;;3.37;;
2542;SDS011;1116;51.502;7.414;2023-11-19T04:40:53;11.97;;;3.30;;
2542;SDS011;1116;51.502;7.414;2023-11-19T04:43:23;15.33;;;3.60;;
2542;SDS011;1116;51.502;7.414;2023-11-19T04:45:56;10.00;;;2.70;;
2542;SDS011;1116;51.502;7.414;2023-11-19T04:48:26;11.73;;;3.73;;
2542;SDS011;1116;51.502;7.414;2023-11-19T04:51:07;10.23;;;3.10;;
2542;SDS011;1116;51.502;7.414;2023-11-19T04:53:38;9.40;;;3.40;;
2542;SDS011;1116;51.502;7.414;2023-11-19T04:56:08;11.87;;;3.70;;
2542;SDS011;1116;51.502;7.414;2023-11-19T04:58:39;18.47;;;3.93;;
2542;SDS011;1116;51.502;7.414;2023-11-19T05:01:15;17.33;;;3.60;;
2542;SDS011;1116;51.502;7.414;2023-11-19T05:03:46;13.33;;;3.30;;
2542;SDS011;1116;51.502;7.414;2023-11-19T05:06:16;18.67;;;3.83;;
2542;SDS011;1116;51.502;7.414;2023-11-19T05:08:46;14.77;;;3.60;;
2542;SDS011;1116;51.502;7.414;2023-11-19T05:11:16;16.40;;;3.77;;
2542;SDS011;1116;51.502;7.414;2023-11-19T05:13:46;16.13;;;4.20;;
2542;SDS011;1116;51.502;7.414;2023-11-19T05:16:19;19.57;;;5.00;;
2542;SDS011;1116;51.502;7.414;2023-11-19T05:18:49;18.00;;;4.30;;
2542;SDS011;1116;51.502;7.414;2023-11-19T05:21:19;14.10;;;4.07;;
2542;SDS011;1116;51.502;7.414;2023-11-19T05:23:48;17.03;;;4.23;;
2542;SDS011;1116;51.502;7.414;2023-11-19T05:26:18;14.83;;;3.60;;
2542;SDS011;1116;51.502;7.414;2023-11-19T05:28:49;14.93;;;3.90;;
2542;SDS011;1116;51.502;7.414;2023-11-19T05:31:22;17.93;;;4.63;;
2542;SDS011;1116;51.502;7.414;2023-11-19T05:33:53;16.53;;;4.23;;
2542;SDS011;1116;51.502;7.414;2023-11-19T05:36:23;17.13;;;4.20;;
2542;SDS011;1116;51.502;7.414;2023-11-19T05:38:54;21.17;;;5.27;;
2542;SDS011;1116;51.502;7.414;2023-11-19T05:41:24;19.17;;;4.10;;
2542;SDS011;1116;51.502;7.414;2023-11-19T05:43:54;16.10;;;4.40;;
2542;SDS011;1116;51.502;7.414;2023-11-19T05:46:26;21.00;;;4.27;;
2542;SDS011;1116;51.502;7.414;2023-11-19T05:48:56;22.73;;;4.27;;
2542;SDS011;1116;51.502;7.414;2023-11-19T05:51:26;17.47;;;4.37;;
2542;SDS011;1116;51.502;7.414;2023-11-19T05:53:56;20.80;;;4.57;;
2542;SDS011;1116;51.502;7.414;2023-11-19T05:56:26;18.20;;;4.87;;
2542;SDS011;1116;51.502;7.414;2023-11-19T05:58:59;16.27;;;4.53;;
2542;SDS011;1116;51.502;7.414;2023-11-19T06:01:36;20.63;;;5.03;;
2542;SDS011;1116;51.502;7.414;2023-11-19T06:04:08;13.73;;;3.53;;
2542;SDS011;1116;51.502;7.414;2023-11-19T06:06:38;20.07;;;5.27;;
2542;SDS011;1116;51.502;7.414;2023-11-19T06:09:08;14.37;;;3.97;;
2542;SDS011;1116;51.502;7.414;2023-11-19T06:11:40;20.50;;;4.43;;
2542;SDS011;1116;51.502;7.414;2023-11-19T06:14:11;19.37;;;4.53;;
2542;SDS011;1116;51.502;7.414;2023-11-19T06:16:51;12.70;;;4.30;;
2542;SDS011;1116;51.502;7.414;2023-11-19T06:19:21;14.80;;;4.80;;
2542;SDS011;1116;51.502;7.414;2023-11-19T06:21:55;13.07;;;3.43;;
2542;SDS011;1116;51.502;7.414;2023-11-19T06:24:25;17.43;;;4.70;;
2542;SDS011;1116;51.502;7.414;2023-11-19T06:26:59;14.00;;;4.30;;
2542;SDS011;1116;51.502;7.414;2023-11-19T06:29:29;13.17;;;3.87;;
2542;SDS011;1116;51.502;7.414;2023-11-19T06:32:02;24.03;;;5.00;;
2542;SDS011;1116;51.502;7.414;2023-11-19T06:34:37;20.13;;;5.03;;
2542;SDS011;1116;51.502;7.414;2023-11-19T06:37:07;18.23;;;3.80;;
2542;SDS011;1116;51.502;7.414;2023-11-19T06:39:37;22.97;;;6.40;;
2542;SDS011;1116;51.502;7.414;2023-11-19T06:42:07;18.83;;;5.80;;
2542;SDS011;1116;51.502;7.414;2023-11-19T06:44:37;16.30;;;4.20;;
2542;SDS011;1116;51.502;7.414;2023-11-19T06:47:10;16.00;;;5.20;;
2542;SDS011;1116;51.502;7.414;2023-11-19T06:49:43;16.37;;;4.60;;
2542;SDS011;1116;51.502;7.414;2023-11-19T06:52:13;15.53;;;4.27;;
2542;SDS011;1116;51.502;7.414;2023-11-19T06:54:43;20.60;;;4.53;;
2542;SDS011;1116;51.502;7.414;2023-11-19T06:57:13;17.70;;;4.93;;
2542;SDS011;1116;51.502;7.414;2023-11-19T06:59:46;13.63;;;4.30;;
2542;SDS011;1116;51.502;7.414;2023-11-19T07:02:18;18.77;;;3.90;;
2542;SDS011;1116;51.502;7.414;2023-11-19T07:04:51;17.90;;;4.60;;
2542;SDS011;1116;51.502;7.414;2023-11-19T07:07:22;23.13;;;5.30;;
2542;SDS011;1116;51.502;7.414;2023-11-19T07:09:52;18.23;;;4.60;;
2542;SDS011;1116;51.502;7.414;2023-11-19T07:12:22;18.57;;;4.30;;
2542;SDS011;1116;51.502;7.414;2023-11-19T07:14:53;25.93;;;4.37;;
2542;SDS011;1116;51.502;7.414;2023-11-19T07:17:26;19.47;;;4.60;;
2542;SDS011;1116;51.502;7.414;2023-11-19T07:19:58;21.60;;;4.90;;
2542;SDS011;1116;51.502;7.414;2023-11-19T07:22:28;19.30;;;5.70;;
2542;SDS011;1116;51.502;7.414;2023-11-19T07:25:00;14.67;;;4.10;;
2542;SDS011;1116;51.502;7.414;2023-11-19T07:27:30;17.10;;;4.73;;
2542;SDS011;1116;51.502;7.414;2023-11-19T07:30:00;19.97;;;4.30;;
2542;SDS011;1116;51.502;7.414;2023-11-19T07:32:32;20.33;;;4.73;;
2542;SDS011;1116;51.502;7.414;2023-11-19T07:35:08;21.10;;;4.30;;
2542;SDS011;1116;51.502;7.414;2023-11-19T07:37:38;14.73;;;4.00;;
2542;SDS011;1116;51.502;7.414;2023-11-19T07:40:10;19.80;;;5.70;;
2542;SDS011;1116;51.502;7.414;2023-11-19T07:42:40;18.60;;;4.77;;
2542;SDS011;1116;51.502;7.414;2023-11-19T07:45:10;14.23;;;4.40;;
2542;SDS011;1116;51.502;7.414;2023-11-19T07:47:43;12.67;;;4.27;;
2542;SDS011;1116;51.502;7.414;2023-11-19T07:50:13;20.50;;;5.57;;
2542;SDS011;1116;51.502;7.414;2023-11-19T07:52:46;14.73;;;4.37;;
2542;SDS011;1116;51.502;7.414;2023-11-19T07:55:15;23.90;;;4.97;;
2542;SDS011;1116;51.502;7.414;2023-11-19T07:57:45;17.80;;;5.20;;
2542;SDS011;1116;51.502;7.414;2023-11-19T08:00:16;15.77;;;5.40;;
2542;SDS011;1116;51.502;7.414;2023-11-19T08:02:49;24.67;;;6.20;;
2542;SDS011;1116;51.502;7.414;2023-11-19T08:05:19;16.67;;;6.50;;
2542;SDS011;1116;51.502;7.414;2023-11-19T08:07:51;21.30;;;6.43;;
2542;SDS011;1116;51.502;7.414;2023-11-19T08:10:21;18.50;;;5.00;;
2542;SDS011;1116;51.502;7.414;2023-11-19T08:12:51;14.47;;;3.87;;
2542;SDS011;1116;51.502;7.414;2023-11-19T08:15:21;18.40;;;4.27;;
2542;SDS011;1116;51.502;7.414;2023-11-19T08:17:56;19.70;;;5.00;;
2542;SDS011;1116;51.502;7.414;2023-11-19T08:20:28;19.17;;;4.70;;
2542;SDS011;1116;51.502;7.414;2023-11-19T08:23:08;16.97;;;5.17;;
2542;SDS011;1116;51.502;7.414;2023-11-19T08:25:39;16.97;;;4.90;;
2542;SDS011;1116;51.502;7.414;2023-11-19T08:28:09;22.07;;;5.00;;
2542;SDS011;1116;51.502;7.414;2023-11-19T08:30:39;22.27;;;4.60;;
2542;SDS011;1116;51.502;7.414;2023-11-19T08:33:13;19.07;;;4.40;;
2542;SDS011;1116;51.502;7.414;2023-11-19T08:35:43;16.03;;;4.53;;
2542;SDS011;1116;51.502;7.414;2023-11-19T08:38:13;21.70;;;5.87;;
2542;SDS011;1116;51.502;7.414;2023-11-19T08:40:57;20.27;;;4.70;;
2542;SDS011;1116;51.502;7.414;2023-11-19T08:43:27;17.27;;;4.17;;
2542;SDS011;1116;51.502;7.414;2023-11-19T08:45:58;18.27;;;4.80;;
2542;SDS011;1116;51.502;7.414;2023-11-19T08:48:31;19.83;;;4.97;;
2542;SDS011;1116;51.502;7.414;2023-11-19T08:51:00;19.13;;;4.73;;
2542;SDS011;1116;51.502;7.414;2023-11-19T08:53:31;14.43;;;5.03;;
2542;SDS011;1116;51.502;7.414;2023-11-19T08:56:01;26.93;;;5.57;;
2542;SDS011;1116;51.502;7.414;2023-11-19T08:58:31;19.60;;;5.00;;
2542;SDS011;1116;51.502;7.414;2023-11-19T09:01:01;17.57;;;4.40;;
2542;SDS011;1116;51.502;7.414;2023-11-19T09:03:34;22.57;;;6.03;;
2542;SDS011;1116;51.502;7.414;2023-11-19T09:06:08;22.50;;;5.33;;
2542;SDS011;1116;51.502;7.414;2023-11-19T09:08:38;17.83;;;5.50;;
2542;SDS011;1116;51.502;7.414;2023-11-19T09:11:08;20.50;;;5.07;;
2542;SDS011;1116;51.502;7.414;2023-11-19T09:13:41;26.20;;;6.30;;
2542;SDS011;1116;51.502;7.414;2023-11-19T09:16:12;22.27;;;5.33;;
2542;SDS011;1116;51.502;7.414;2023-11-19T09:18:44;19.80;;;4.83;;
2542;SDS011;1116;51.502;7.414;2023-11-19T09:21:14;18.60;;;4.67;;
2542;SDS011;1116;51.502;7.414;2023-11-19T09:23:44;19.77;;;4.93;;
2542;SDS011;1116;51.502;7.414;2023-11-19T09:26:15;19.53;;;4.80;;
2542;SDS011;1116;51.502;7.414;2023-11-19T09:28:45;21.27;;;5.77;;
2542;SDS011;1116;51.502;7.414;2023-11-19T09:31:16;21.43;;;4.53;;
2542;SDS011;1116;51.502;7.414;2023-11-19T09:33:49;20.83;;;6.10;;
2542;SDS011;1116;51.502;7.414;2023-11-19T09:36:19;24.90;;;6.53;;
2542;SDS011;1116;51.502;7.414;2023-11-19T09:38:49;25.60;;;7.40;;
2542;SDS011;1116;51.502;7.414;2023-11-19T09:41:19;24.30;;;6.87;;
2542;SDS011;1116;51.502;7.414;2023-11-19T09:43:49;17.93;;;5.20;;
2542;SDS011;1116;51.502;7.414;2023-11-19T09:46:20;21.73;;;5.30;;
2542;SDS011;1116;51.502;7.414;2023-11-19T09:48:53;23.57;;;5.10;;
2542;SDS011;1116;51.502;7.414;2023-11-19T09:51:25;17.43;;;5.10;;
2542;SDS011;1116;51.502;7.414;2023-11-19T09:53:55;16.83;;;5.17;;
2542;SDS011;1116;51.502;7.414;2023-11-19T09:56:25;22.77;;;5.13;;
2542;SDS011;1116;51.502;7.414;2023-11-19T09:58:57;16.80;;;4.53;;
2542;SDS011;1116;51.502;7.414;2023-11-19T10:01:28;18.27;;;5.03;;
2542;SDS011;1116;51.502;7.414;2023-11-19T10:04:01;21.07;;;5.73;;
2542;SDS011;1116;51.502;7.414;2023-11-19T10:06:31;18.50;;;4.77;;
2542;SDS011;1116;51.502;7.414;2023-11-19T10:09:02;18.60;;;4.67;;
2542;SDS011;1116;51.502;7.414;2023-11-19T10:11:35;28.27;;;5.60;;
2542;SDS011;1116;51.502;7.414;2023-11-19T10:14:04;25.23;;;5.13;;
2542;SDS011;1116;51.502;7.414;2023-11-19T10:16:34;26.13;;;5.07;;
2542;SDS011;1116;51.502;7.414;2023-11-19T10:19:07;18.73;;;4.87;;
2542;SDS011;1116;51.502;7.414;2023-11-19T10:21:37;18.37;;;4.30;;
2542;SDS011;1116;51.502;7.414;2023-11-19T10:24:07;19.20;;;5.60;;
2542;SDS011;1116;51.502;7.414;2023-11-19T10:26:37;15.80;;;5.03;;
2542;SDS011;1116;51.502;7.414;2023-11-19T10:29:07;18.43;;;5.07;;
2542;SDS011;1116;51.502;7.414;2023-11-19T10:31:37;21.20;;;4.90;;
2542;SDS011;1116;51.502;7.414;2023-11-19T10:34:23;13.10;;;4.37;;
2542;SDS011;1116;51.502;7.414;2023-11-19T10:36:54;17.40;;;4.60;;
2542;SDS011;1116;51.502;7.414;2023-11-19T10:39:24;22.13;;;5.40;;
2542;SDS011;1116;51.502;7.414;2023-11-19T10:42:17;13.63;;;4.93;;
2542;SDS011;1116;51.502;7.414;2023-11-19T10:44:47;16.50;;;4.20;;
2542;SDS011;1116;51.502;7.414;2023-11-19T10:47:18;18.20;;;5.07;;
2542;SDS011;1116;51.502;7.414;2023-11-19T10:49:54;21.27;;;5.23;;
2542;SDS011;1116;51.502;7.414;2023-11-19T10:52:24;19.20;;;5.10;;
2542;SDS011;1116;51.502;7.414;2023-11-19T10:54:56;20.57;;;5.50;;
2542;SDS011;1116;51.502;7.414;2023-11-19T10:57:32;17.43;;;4.40;;
2542;SDS011;1116;51.502;7.414;2023-11-19T11:00:09;23.87;;;5.33;;
2542;SDS011;1116;51.502;7.414;2023-11-19T11:02:47;16.00;;;5.20;;
2542;SDS011;1116;51.502;7.414;2023-11-19T11:05:29;17.07;;;5.67;;
2542;SDS011;1116;51.502;7.414;2023-11-19T11:08:03;20.37;;;4.63;;
2542;SDS011;1116;51.502;7.414;2023-11-19T11:11:47;15.93;;;5.03;;
2542;SDS011;1116;51.502;7.414;2023-11-19T11:15:12;22.93;;;5.43;;
2542;SDS011;1116;51.502;7.414;2023-11-19T11:17:42;16.83;;;4.60;;
2542;SDS011;1116;51.502;7.414;2023-11-19T11:20:14;18.10;;;5.10;;
2542;SDS011;1116;51.502;7.414;2023-11-19T11:22:48;17.37;;;5.27;;
2542;SDS011;1116;51.502;7.414;2023-11-19T11:25:35;21.93;;;6.33;;
2542;SDS011;1116;51.502;7.414;2023-11-19T11:28:16;20.07;;;5.13;;
2542;SDS011;1116;51.502;7.414;2023-11-19T11:31:15;21.80;;;5.47;;
2542;SDS011;1116;51.502;7.414;2023-11-19T11:33:58;12.87;;;4.13;;
2542;SDS011;1116;51.502;7.414;2023-11-19T11:36:48;22.23;;;5.40;;
2542;SDS011;1116;51.502;7.414;2023-11-19T11:39:29;15.53;;;4.37;;
2542;SDS011;1116;51.502;7.414;2023-11-19T11:45:01;18.03;;;4.70;;
2542;SDS011;1116;51.502;7.414;2023-11-19T11:50:49;21.20;;;5.57;;
2542;SDS011;1116;51.502;7.414;2023-11-19T11:53:21;16.80;;;5.93;;
2542;SDS011;1116;51.502;7.414;2023-11-19T11:55:56;18.90;;;4.90;;
2542;SDS011;1116;51.502;7.414;2023-11-19T11:58:30;14.00;;;4.37;;
2542;SDS011;1116;51.502;7.414;2023-11-19T12:01:14;20.60;;;4.60;;
2542;SDS011;1116;51.502;7.414;2023-11-19T12:03:48;21.90;;;5.13;;
2542;SDS011;1116;51.502;7.414;2023-11-19T12:06:22;22.57;;;5.20;;
2542;SDS011;1116;51.502;7.414;2023-11-19T12:08:52;17.27;;;5.60;;
2542;SDS011;1116;51.502;7.414;2023-11-19T12:11:31;26.63;;;11.87;;
2542;SDS011;1116;51.502;7.414;2023-11-19T12:14:03;18.57;;;5.50;;
2542;SDS011;1116;51.502;7.414;2023-11-19T12:16:34;18.77;;;5.03;;
2542;SDS011;1116;51.502;7.414;2023-11-19T12:19:05;13.50;;;4.50;;
2542;SDS011;1116;51.502;7.414;2023-11-19T12:21:36;18.80;;;5.57;;
2542;SDS011;1116;51.502;7.414;2023-11-19T12:24:06;17.83;;;5.80;;
2542;SDS011;1116;51.502;7.414;2023-11-19T12:26:40;18.10;;;5.23;;
2542;SDS011;1116;51.502;7.414;2023-11-19T12:29:10;19.37;;;6.80;;
2542;SDS011;1116;51.502;7.414;2023-11-19T12:31:43;21.00;;;7.70;;
2542;SDS011;1116;51.502;7.414;2023-11-19T12:34:14;21.40;;;11.20;;
2542;SDS011;1116;51.502;7.414;2023-11-19T12:36:43;19.40;;;4.80;;
2542;SDS011;1116;51.502;7.414;2023-11-19T12:39:13;13.80;;;4.47;;
2542;SDS011;1116;51.502;7.414;2023-11-19T12:41:53;12.97;;;4.57;;
2542;SDS011;1116;51.502;7.414;2023-11-19T12:44:25;15.73;;;4.37;;
2542;SDS011;1116;51.502;7.414;2023-11-19T12:46:59;17.23;;;3.93;;
2542;SDS011;1116;51.502;7.414;2023-11-19T12:49:30;11.80;;;3.70;;
2542;SDS011;1116;51.502;7.414;2023-11-19T12:52:00;17.07;;;3.80;;
2542;SDS011;1116;51.502;7.414;2023-11-19T12:54:34;16.63;;;4.17;;
2542;SDS011;1116;51.502;7.414;2023-11-19T12:57:07;15.17;;;3.93;;
2542;SDS011;1116;51.502;7.414;2023-11-19T12:59:37;16.20;;;4.43;;
2542;SDS011;1116;51.502;7.414;2023-11-19T13:02:07;16.17;;;4.50;;
2542;SDS011;1116;51.502;7.414;2023-11-19T13:04:37;12.80;;;4.03;;
2542;SDS011;1116;51.502;7.414;2023-11-19T13:07:07;13.60;;;4.13;;
2542;SDS011;1116;51.502;7.414;2023-11-19T13:09:37;13.63;;;4.03;;
2542;SDS011;1116;51.502;7.414;2023-11-19T13:12:15;14.80;;;3.80;;
2542;SDS011;1116;51.502;7.414;2023-11-19T13:14:45;20.83;;;4.13;;
2542;SDS011;1116;51.502;7.414;2023-11-19T13:17:16;14.13;;;3.87;;
2542;SDS011;1116;51.502;7.414;2023-11-19T13:19:47;13.60;;;3.63;;
2542;SDS011;1116;51.502;7.414;2023-11-19T13:22:18;18.33;;;5.30;;
2542;SDS011;1116;51.502;7.414;2023-11-19T13:24:48;18.30;;;4.93;;
2542;SDS011;1116;51.502;7.414;2023-11-19T13:27:23;14.87;;;4.43;;
2542;SDS011;1116;51.502;7.414;2023-11-19T13:29:53;14.87;;;4.60;;
2542;SDS011;1116;51.502;7.414;2023-11-19T13:32:23;16.13;;;4.43;;
2542;SDS011;1116;51.502;7.414;2023-11-19T13:34:53;13.63;;;4.43;;
2542;SDS011;1116;51.502;7.414;2023-11-19T13:37:22;13.60;;;5.70;;
2542;SDS011;1116;51.502;7.414;2023-11-19T13:39:52;13.20;;;5.00;;
2542;SDS011;1116;51.502;7.414;2023-11-19T13:42:25;18.17;;;4.90;;
2542;SDS011;1116;51.502;7.414;2023-11-19T13:44:55;10.60;;;3.70;;
2542;SDS011;1116;51.502;7.414;2023-11-19T13:47:25;11.73;;;3.00;;
2542;SDS011;1116;51.502;7.414;2023-11-19T13:49:55;12.13;;;3.40;;
2542;SDS011;1116;51.502;7.414;2023-11-19T13:52:25;12.37;;;2.90;;
2542;SDS011;1116;51.502;7.414;2023-11-19T13:54:55;11.00;;;3.47;;
2542;SDS011;1116;51.502;7.414;2023-11-19T13:57:27;8.10;;;3.07;;
2542;SDS011;1116;51.502;7.414;2023-11-19T14:00:00;11.50;;;3.37;;
2542;SDS011;1116;51.502;7.414;2023-11-19T14:02:33;10.30;;;3.87;;
2542;SDS011;1116;51.502;7.414;2023-11-19T14:05:03;12.97;;;4.00;;
2542;SDS011;1116;51.502;7.414;2023-11-19T14:07:33;11.33;;;3.50;;
2542;SDS011;1116;51.502;7.414;2023-11-19T14:10:04;12.00;;;3.10;;
2542;SDS011;1116;51.502;7.414;2023-11-19T14:12:38;13.53;;;4.00;;
2542;SDS011;1116;51.502;7.414;2023-11-19T14:15:09;11.30;;;3.97;;
2542;SDS011;1116;51.502;7.414;2023-11-19T14:17:40;13.80;;;3.60;;
2542;SDS011;1116;51.502;7.414;2023-11-19T14:20:10;15.13;;;3.87;;
2542;SDS011;1116;51.502;7.414;2023-11-19T14:22:43;12.47;;;4.00;;
2542;SDS011;1116;51.502;7.414;2023-11-19T14:25:15;11.67;;;3.27;;
2542;SDS011;1116;51.502;7.414;2023-11-19T14:27:47;17.70;;;4.07;;
2542;SDS011;1116;51.502;7.414;2023-11-19T14:30:17;20.07;;;4.23;;
2542;SDS011;1116;51.502;7.414;2023-11-19T14:32:47;15.97;;;4.97;;
2542;SDS011;1116;51.502;7.414;2023-11-19T14:35:17;10.27;;;3.57;;
2542;SDS011;1116;51.502;7.414;2023-11-19T14:37:47;13.07;;;4.23;;
2542;SDS011;1116;51.502;7.414;2023-11-19T14:40:17;16.57;;;4.03;;
2542;SDS011;1116;51.502;7.414;2023-11-19T14:42:50;13.60;;;4.07;;
2542;SDS011;1116;51.502;7.414;2023-11-19T14:45:24;15.83;;;3.50;;
2542;SDS011;1116;51.502;7.414;2023-11-19T14:47:56;10.03;;;3.63;;
2542;SDS011;1116;51.502;7.414;2023-11-19T14:50:26;13.87;;;3.80;;
2542;SDS011;1116;51.502;7.414;2023-11-19T14:52:56;17.70;;;4.00;;
2542;SDS011;1116;51.502;7.414;2023-11-19T14:55:25;12.73;;;4.20;;
2542;SDS011;1116;51.502;7.414;2023-11-19T14:57:58;14.20;;;4.07;;
2542;SDS011;1116;51.502;7.414;2023-11-19T15:00:35;12.47;;;4.30;;
2542;SDS011;1116;51.502;7.414;2023-11-19T15:03:05;15.07;;;4.20;;
2542;SDS011;1116;51.502;7.414;2023-11-19T15:05:38;13.63;;;4.00;;
2542;SDS011;1116;51.502;7.414;2023-11-19T15:08:08;12.63;;;4.20;;
2542;SDS011;1116;51.502;7.414;2023-11-19T15:10:38;12.33;;;3.30;;
2542;SDS011;1116;51.502;7.414;2023-11-19T15:13:11;13.17;;;5.33;;
2542;SDS011;1116;51.502;7.414;2023-11-19T15:15:40;12.07;;;4.07;;
2542;SDS011;1116;51.502;7.414;2023-11-19T15:18:11;12.90;;;3.50;;
2542;SDS011;1116;51.502;7.414;2023-11-19T15:20:40;16.93;;;4.30;;
2542;SDS011;1116;51.502;7.414;2023-11-19T15:23:13;12.67;;;3.10;;
2542;SDS011;1116;51.502;7.414;2023-11-19T15:25:43;13.53;;;4.33;;
2542;SDS011;1116;51.502;7.414;2023-11-19T15:28:16;13.73;;;3.97;;
2542;SDS011;1116;51.502;7.414;2023-11-19T15:30:46;13.77;;;3.70;;
2542;SDS011;1116;51.502;7.414;2023-11-19T15:33:16;13.93;;;3.30;;
2542;SDS011;1116;51.502;7.414;2023-11-19T15:35:46;17.10;;;4.57;;
2542;SDS011;1116;51.502;7.414;2023-11-19T15:38:16;15.47;;;5.20;;
2542;SDS011;1116;51.502;7.414;2023-11-19T15:40:46;9.57;;;4.03;;
2542;SDS011;1116;51.502;7.414;2023-11-19T15:43:18;16.23;;;4.70;;